Time;durP1;ratioP1;P1;durP2;ratioP2;P2;SDS_P1;SDS_P2;PMS_P1;PMS_P2;Temp;Humidity;BMP_temperature;BMP_pressure;BME280_temperature;BME280_humidity;BME280_pressure;Samples;Min_cycle;Max_cycle;Signal;HPM_P1;HPM_P2
2024/01/07 00:01:50;;;;;;;12.70;9.68;;;6.00;82.30;;;;;;4748700;30;20043;-96
2024/01/07 00:04:16;;;;;;;12.73;9.90;;;6.00;82.30;;;;;;4753695;30;20031;-95
2024/01/07 00:06:42;;;;;;;11.60;8.93;;;6.00;82.30;;;;;;4767448;30;20035;-96
2024/01/07 00:09:08;;;;;;;12.18;8.95;;;6.00;82.30;;;;;;4771221;30;20031;-96
2024/01/07 00:11:33;;;;;;;13.18;9.90;;;5.90;82.30;;;;;;4757702;30;20032;-96
2024/01/07 00:13:59;;;;;;;13.00;9.50;;;6.00;82.30;;;;;;4769184;30;20028;-95
2024/01/07 00:16:25;;;;;;;11.90;9.20;;;5.90;82.30;;;;;;4741303;30;20048;-96
2024/01/07 00:18:51;;;;;;;13.68;9.52;;;6.00;82.30;;;;;;4763957;30;20047;-95
2024/01/07 00:21:16;;;;;;;13.55;9.60;;;5.90;82.30;;;;;;4761859;30;20038;-96
2024/01/07 00:23:42;;;;;;;12.48;9.55;;;6.00;82.30;;;;;;4761387;30;20039;-96
2024/01/07 00:26:09;;;;;;;14.00;10.10;;;5.90;82.30;;;;;;4759745;30;20059;-96
2024/01/07 00:28:35;;;;;;;11.93;9.48;;;6.00;82.30;;;;;;4753453;30;20039;-96
2024/01/07 00:31:01;;;;;;;11.65;8.90;;;5.90;82.20;;;;;;4731833;30;20036;-96
2024/01/07 00:33:26;;;;;;;13.10;10.07;;;5.90;82.30;;;;;;4735368;30;20474;-96
2024/01/07 00:35:52;;;;;;;11.90;9.63;;;5.90;82.20;;;;;;4749797;30;20047;-96
2024/01/07 00:38:18;;;;;;;13.32;9.63;;;5.90;82.30;;;;;;4731252;30;20093;-96
2024/01/07 00:40:44;;;;;;;13.45;10.40;;;5.90;82.30;;;;;;4734079;30;20052;-95
2024/01/07 00:43:10;;;;;;;13.93;10.25;;;5.90;82.30;;;;;;4739329;30;20041;-96
2024/01/07 00:45:35;;;;;;;13.10;9.40;;;5.90;82.30;;;;;;4747712;30;20402;-95
2024/01/07 00:48:01;;;;;;;14.38;10.00;;;5.90;82.30;;;;;;4762709;30;20036;-96
2024/01/07 00:50:27;;;;;;;12.55;9.60;;;5.90;82.30;;;;;;4733088;30;20029;-96
2024/01/07 00:52:53;;;;;;;13.93;10.38;;;5.90;82.30;;;;;;4744861;30;20043;-95
2024/01/07 00:55:18;;;;;;;13.45;9.82;;;5.90;82.30;;;;;;4756223;30;20547;-95
2024/01/07 00:57:44;;;;;;;13.93;9.93;;;5.90;82.30;;;;;;4750539;30;20032;-96
2024/01/07 01:00:10;;;;;;;13.32;9.40;;;5.90;82.30;;;;;;4743145;30;20025;-96
2024/01/07 01:02:37;;;;;;;13.15;10.63;;;5.90;82.30;;;;;;4732706;30;20040;-94
2024/01/07 01:05:03;;;;;;;13.65;10.43;;;5.90;82.30;;;;;;4733814;30;20025;-96
2024/01/07 01:07:29;;;;;;;15.30;10.13;;;5.90;82.30;;;;;;4742981;30;20124;-95
2024/01/07 01:09:54;;;;;;;14.90;10.27;;;5.90;82.30;;;;;;4734629;30;20466;-95
2024/01/07 01:12:20;;;;;;;15.20;10.80;;;5.90;82.30;;;;;;4729104;30;20081;-95
2024/01/07 01:14:47;;;;;;;14.23;10.13;;;5.90;82.30;;;;;;4743414;30;20032;-96
2024/01/07 01:17:12;;;;;;;15.45;10.40;;;5.90;82.30;;;;;;4727445;30;20051;-96
2024/01/07 01:19:39;;;;;;;15.27;10.98;;;5.90;82.30;;;;;;4744225;30;20044;-96
2024/01/07 01:22:04;;;;;;;13.57;10.65;;;5.90;82.30;;;;;;4747667;30;20032;-95
2024/01/07 01:24:30;;;;;;;15.25;11.52;;;5.90;82.30;;;;;;4769222;30;20040;-96
2024/01/07 01:26:56;;;;;;;14.77;10.65;;;5.90;82.30;;;;;;4743411;30;20052;-94
2024/01/07 01:29:21;;;;;;;15.18;10.95;;;5.90;82.30;;;;;;4739754;30;20034;-96
2024/01/07 01:31:47;;;;;;;16.30;11.05;;;5.90;82.30;;;;;;4729379;30;20106;-96
2024/01/07 01:34:13;;;;;;;16.17;11.45;;;5.90;82.30;;;;;;4759393;30;20032;-95
2024/01/07 01:36:39;;;;;;;15.82;10.70;;;5.80;82.30;;;;;;4750785;30;20490;-95
2024/01/07 01:39:05;;;;;;;15.75;11.18;;;5.90;82.30;;;;;;4732984;30;20028;-95
2024/01/07 01:41:32;;;;;;;16.27;11.40;;;5.80;82.20;;;;;;4738122;30;20036;-96
2024/01/07 01:43:59;;;;;;;13.85;10.00;;;5.80;82.30;;;;;;4732454;30;20031;-96
2024/01/07 01:46:25;;;;;;;14.85;10.90;;;5.80;82.90;;;;;;4730023;30;20074;-96
2024/01/07 01:48:51;;;;;;;17.38;11.68;;;5.80;82.30;;;;;;4754757;30;20033;-95
2024/01/07 01:51:17;;;;;;;14.57;10.85;;;5.80;82.30;;;;;;4725638;30;20486;-96
2024/01/07 01:53:45;;;;;;;14.60;10.45;;;5.80;82.30;;;;;;4757526;30;20036;-95
2024/01/07 01:56:12;;;;;;;14.85;10.20;;;5.80;82.30;;;;;;4727371;30;20036;-96
2024/01/07 01:58:37;;;;;;;14.73;10.90;;;5.80;82.30;;;;;;4738802;30;20032;-95
2024/01/07 02:01:04;;;;;;;15.27;10.95;;;5.80;82.30;;;;;;4737177;30;20508;-95
2024/01/07 02:03:29;;;;;;;13.13;9.93;;;5.80;82.30;;;;;;4744059;30;20032;-95
2024/01/07 02:05:57;;;;;;;14.60;10.80;;;5.80;82.30;;;;;;4741243;30;20047;-95
2024/01/07 02:08:24;;;;;;;14.52;10.80;;;5.80;82.30;;;;;;4743178;30;20083;-96
2024/01/07 02:10:50;;;;;;;12.90;9.73;;;5.80;82.30;;;;;;4744648;30;20028;-94
2024/01/07 02:13:16;;;;;;;13.65;9.88;;;5.80;82.30;;;;;;4744805;30;20042;-96
2024/01/07 02:15:43;;;;;;;12.98;9.65;;;5.80;82.30;;;;;;4755011;30;20032;-96
2024/01/07 02:18:09;;;;;;;14.05;9.88;;;5.80;82.30;;;;;;4748452;30;20036;-96
2024/01/07 02:20:38;;;;;;;14.00;9.73;;;5.80;82.30;;;;;;4735052;30;20032;-96
2024/01/07 02:23:04;;;;;;;14.65;10.65;;;5.80;82.30;;;;;;4731131;30;20037;-95
2024/01/07 02:25:37;;;;;;;14.20;9.80;;;5.80;82.30;;;;;;4753262;30;20036;-96
2024/01/07 02:28:04;;;;;;;14.13;10.80;;;5.80;82.30;;;;;;4729716;30;20512;-94
2024/01/07 02:30:30;;;;;;;14.00;10.25;;;5.80;82.30;;;;;;4734287;30;20038;-95
2024/01/07 02:32:56;;;;;;;14.93;10.20;;;5.70;82.20;;;;;;4732119;30;20495;-96
2024/01/07 02:35:22;;;;;;;13.45;10.40;;;5.80;82.30;;;;;;4739722;30;20043;-95
2024/01/07 02:37:47;;;;;;;13.55;10.35;;;5.70;82.30;;;;;;4740265;30;20032;-94
2024/01/07 02:40:13;;;;;;;14.07;10.68;;;5.70;82.30;;;;;;4740290;30;20032;-96
2024/01/07 02:42:39;;;;;;;14.70;11.10;;;5.70;82.20;;;;;;4726758;30;20036;-95
2024/01/07 02:45:05;;;;;;;14.35;10.68;;;5.80;82.30;;;;;;4742877;30;20036;-95
2024/01/07 02:47:31;;;;;;;14.10;9.82;;;5.70;82.20;;;;;;4731543;30;20044;-95
2024/01/07 02:49:56;;;;;;;15.43;10.75;;;5.70;82.20;;;;;;4744576;30;20039;-96
2024/01/07 02:52:22;;;;;;;14.38;10.30;;;5.70;82.20;;;;;;4724661;30;20033;-95
2024/01/07 02:54:48;;;;;;;13.85;10.02;;;5.70;82.20;;;;;;4739955;30;20036;-95
2024/01/07 02:57:14;;;;;;;16.17;10.68;;;5.70;82.20;;;;;;4742841;30;20424;-95
2024/01/07 02:59:39;;;;;;;15.82;10.80;;;5.70;82.20;;;;;;4744207;30;20095;-96
2024/01/07 03:02:05;;;;;;;15.38;10.98;;;5.70;82.20;;;;;;4744828;30;20028;-95
2024/01/07 03:04:31;;;;;;;14.45;10.43;;;5.70;82.20;;;;;;4750365;30;20037;-96
2024/01/07 03:06:57;;;;;;;15.75;10.63;;;5.70;82.30;;;;;;4727859;30;20032;-95
2024/01/07 03:09:22;;;;;;;15.57;10.63;;;5.70;82.30;;;;;;4730246;30;20032;-96
2024/01/07 03:11:48;;;;;;;13.88;10.27;;;5.70;82.30;;;;;;4733002;30;20020;-95
2024/01/07 03:14:16;;;;;;;13.60;9.75;;;5.70;82.20;;;;;;4744972;30;20028;-96
2024/01/07 03:16:42;;;;;;;14.88;10.38;;;5.70;82.30;;;;;;4727611;30;20043;-94
2024/01/07 03:19:08;;;;;;;12.82;9.63;;;5.70;82.20;;;;;;4738593;30;20447;-95
2024/01/07 03:21:33;;;;;;;14.70;10.48;;;5.70;82.20;;;;;;4745932;30;20074;-95
2024/01/07 03:23:59;;;;;;;12.65;9.52;;;5.70;82.30;;;;;;4727303;30;20081;-94
2024/01/07 03:26:32;;;;;;;12.63;10.18;;;5.70;82.20;;;;;;4722935;30;20481;-96
2024/01/07 03:28:59;;;;;;;12.57;9.85;;;5.70;82.30;;;;;;4744522;30;20039;-95
2024/01/07 03:31:25;;;;;;;13.90;10.80;;;5.70;82.20;;;;;;4740810;30;20027;-96
2024/01/07 03:33:51;;;;;;;13.63;9.63;;;5.70;82.20;;;;;;4752589;30;20115;-96
2024/01/07 03:36:17;;;;;;;13.85;10.35;;;5.70;82.20;;;;;;4727077;30;20040;-96
2024/01/07 03:38:43;;;;;;;13.57;10.00;;;5.60;82.20;;;;;;4732154;30;20062;-96
2024/01/07 03:41:08;;;;;;;13.75;9.88;;;5.70;82.30;;;;;;4737454;30;20051;-95
2024/01/07 03:43:34;;;;;;;12.95;9.07;;;5.70;82.30;;;;;;4751886;30;20087;-95
2024/01/07 03:46:00;;;;;;;13.18;9.68;;;5.70;82.20;;;;;;4723769;30;20032;-94
2024/01/07 03:48:26;;;;;;;11.48;9.05;;;5.60;82.20;;;;;;4748342;30;20032;-95
2024/01/07 03:50:52;;;;;;;12.63;9.27;;;5.60;82.20;;;;;;4738932;30;20028;-95
2024/01/07 03:53:18;;;;;;;12.60;9.35;;;5.60;82.20;;;;;;4735651;30;20043;-94
2024/01/07 03:55:44;;;;;;;11.30;8.85;;;5.70;82.30;;;;;;4721111;30;20051;-95
2024/01/07 03:58:10;;;;;;;11.38;8.98;;;5.60;82.20;;;;;;4723245;30;20036;-95
2024/01/07 04:00:36;;;;;;;13.32;8.93;;;5.60;82.20;;;;;;4739865;30;20043;-96
2024/01/07 04:03:02;;;;;;;10.90;8.20;;;5.60;82.20;;;;;;4749322;30;20108;-96
2024/01/07 04:05:29;;;;;;;10.38;7.72;;;5.60;82.20;;;;;;4732687;30;20028;-95
2024/01/07 04:07:55;;;;;;;12.63;9.82;;;5.60;82.20;;;;;;4726268;30;20106;-96
2024/01/07 04:10:20;;;;;;;10.77;8.75;;;5.60;82.20;;;;;;4716745;30;20024;-95
2024/01/07 04:12:47;;;;;;;10.45;8.18;;;5.60;82.90;;;;;;4739211;30;20124;-95
2024/01/07 04:15:13;;;;;;;9.77;8.25;;;5.60;82.20;;;;;;4739212;30;20044;-96
2024/01/07 04:17:38;;;;;;;10.45;8.38;;;5.60;82.30;;;;;;4754845;30;20043;-95
2024/01/07 04:20:06;;;;;;;11.57;8.60;;;5.60;82.20;;;;;;4747033;30;20500;-95
2024/01/07 04:22:32;;;;;;;9.90;7.63;;;5.60;82.20;;;;;;4754530;30;20080;-95
2024/01/07 04:24:57;;;;;;;9.52;7.70;;;5.60;82.20;;;;;;4732222;30;20036;-94
2024/01/07 04:27:24;;;;;;;10.98;8.45;;;5.50;82.20;;;;;;4741097;30;20083;-95
2024/01/07 04:29:50;;;;;;;9.60;7.75;;;5.60;82.20;;;;;;4730205;30;20048;-94
2024/01/07 04:32:16;;;;;;;9.88;7.95;;;5.60;82.20;;;;;;4732984;30;20517;-95
2024/01/07 04:34:42;;;;;;;10.93;8.40;;;5.50;82.10;;;;;;4744013;30;20064;-95
2024/01/07 04:37:08;;;;;;;10.23;8.23;;;5.60;82.20;;;;;;4737994;30;20032;-95
2024/01/07 04:39:34;;;;;;;10.73;8.23;;;5.50;82.20;;;;;;4738201;30;20122;-94
2024/01/07 04:41:59;;;;;;;10.15;8.10;;;5.50;82.20;;;;;;4723205;30;20032;-94
2024/01/07 04:44:25;;;;;;;11.30;8.82;;;5.50;82.20;;;;;;4726727;30;20033;-95
2024/01/07 04:46:51;;;;;;;10.23;8.20;;;5.50;82.10;;;;;;4751444;30;20040;-94
2024/01/07 04:49:17;;;;;;;10.50;8.45;;;5.50;82.20;;;;;;4752756;30;20093;-96
2024/01/07 04:51:42;;;;;;;10.98;8.00;;;5.50;82.10;;;;;;4741939;30;20044;-95
2024/01/07 04:54:08;;;;;;;10.25;8.50;;;5.50;82.10;;;;;;4720972;30;20039;-95
2024/01/07 04:56:34;;;;;;;9.93;7.93;;;5.50;82.10;;;;;;4746652;30;20070;-96
2024/01/07 04:59:00;;;;;;;11.48;9.07;;;5.50;82.20;;;;;;4742619;30;20041;-95
2024/01/07 05:01:25;;;;;;;10.48;8.50;;;5.50;82.20;;;;;;4727298;30;20524;-95
2024/01/07 05:03:51;;;;;;;10.32;8.43;;;5.50;82.20;;;;;;4740212;30;20489;-94
2024/01/07 05:06:17;;;;;;;10.68;8.85;;;5.50;82.10;;;;;;4741968;30;20070;-95
2024/01/07 05:08:43;;;;;;;9.85;8.15;;;5.50;82.20;;;;;;4748335;30;20493;-94
2024/01/07 05:11:09;;;;;;;10.48;8.25;;;5.50;82.20;;;;;;4720756;30;20072;-94
2024/01/07 05:13:35;;;;;;;10.43;7.93;;;5.50;82.20;;;;;;4734910;30;20033;-94
2024/01/07 05:16:02;;;;;;;10.13;8.27;;;5.50;82.80;;;;;;4738110;30;20099;-94
2024/01/07 05:18:28;;;;;;;10.25;8.68;;;5.40;82.10;;;;;;4745869;30;20028;-95
2024/01/07 05:20:54;;;;;;;11.52;9.10;;;5.50;82.20;;;;;;4731424;30;20040;-95
2024/01/07 05:23:20;;;;;;;11.75;9.38;;;5.50;82.20;;;;;;4739824;30;20024;-95
2024/01/07 05:25:46;;;;;;;11.50;8.73;;;5.40;82.10;;;;;;4720699;30;20032;-94
2024/01/07 05:28:12;;;;;;;11.18;8.93;;;5.40;82.10;;;;;;4716178;30;20040;-95
2024/01/07 05:30:43;;;;;;;10.27;8.63;;;5.50;82.20;;;;;;4734405;30;20032;-94
2024/01/07 05:33:09;;;;;;;11.10;8.88;;;5.40;82.10;;;;;;4723350;30;20051;-94
2024/01/07 05:35:35;;;;;;;11.55;9.57;;;5.50;82.10;;;;;;4724735;30;20135;-95
2024/01/07 05:38:01;;;;;;;10.75;8.95;;;5.40;82.10;;;;;;4736590;30;20132;-95
2024/01/07 05:40:27;;;;;;;10.68;8.68;;;5.40;82.10;;;;;;4733221;30;20051;-95
2024/01/07 05:42:52;;;;;;;10.27;8.57;;;5.40;82.10;;;;;;4753499;30;20035;-95
2024/01/07 05:45:18;;;;;;;11.13;8.68;;;5.40;82.10;;;;;;4725731;30;20095;-95
2024/01/07 05:47:44;;;;;;;10.63;8.60;;;5.40;82.10;;;;;;4722789;30;20105;-94
2024/01/07 05:50:10;;;;;;;11.75;8.68;;;5.40;82.10;;;;;;4723199;30;20025;-94
2024/01/07 05:52:36;;;;;;;11.27;8.77;;;5.40;82.10;;;;;;4756249;30;20066;-95
2024/01/07 05:55:02;;;;;;;10.43;8.77;;;5.40;82.10;;;;;;4737130;30;20112;-93
2024/01/07 05:57:28;;;;;;;10.30;8.05;;;5.40;82.10;;;;;;4735013;30;20028;-94
2024/01/07 05:59:54;;;;;;;10.65;8.70;;;5.40;82.10;;;;;;4738178;30;20063;-93
2024/01/07 06:02:22;;;;;;;10.20;8.18;;;5.40;82.10;;;;;;4725712;30;20033;-95
2024/01/07 06:04:48;;;;;;;10.38;8.40;;;5.40;82.10;;;;;;4737107;30;20036;-94
2024/01/07 06:07:14;;;;;;;10.23;8.63;;;5.40;82.10;;;;;;4738941;30;20066;-94
2024/01/07 06:09:39;;;;;;;10.60;8.50;;;5.40;82.10;;;;;;4747389;30;20436;-95
2024/01/07 06:12:05;;;;;;;9.82;8.25;;;5.30;82.00;;;;;;4726218;30;20074;-95
2024/01/07 06:14:31;;;;;;;10.45;8.18;;;5.30;82.00;;;;;;4737284;30;20119;-95
2024/01/07 06:16:57;;;;;;;10.13;8.43;;;5.30;82.10;;;;;;4750109;30;20032;-95
2024/01/07 06:19:23;;;;;;;11.13;9.07;;;5.40;82.10;;;;;;4714470;30;20068;-93
2024/01/07 06:21:48;;;;;;;9.90;8.10;;;5.40;82.10;;;;;;4743719;30;20038;-94
2024/01/07 06:24:14;;;;;;;10.23;8.57;;;5.30;82.10;;;;;;4733975;30;20036;-94
2024/01/07 06:26:40;;;;;;;9.65;8.20;;;5.30;82.10;;;;;;4749292;30;20103;-94
2024/01/07 06:29:09;;;;;;;11.02;8.82;;;5.30;82.10;;;;;;4735264;30;20033;-95
2024/01/07 06:31:35;;;;;;;10.13;8.48;;;5.30;82.10;;;;;;4716098;30;20037;-94
2024/01/07 06:34:01;;;;;;;10.25;8.32;;;5.30;82.00;;;;;;4723390;30;20082;-92
2024/01/07 06:36:26;;;;;;;9.23;7.88;;;5.30;82.00;;;;;;4730095;30;20044;-94
2024/01/07 06:38:52;;;;;;;9.35;8.07;;;5.30;82.00;;;;;;4720897;30;20524;-93
2024/01/07 06:41:18;;;;;;;10.02;8.25;;;5.30;82.00;;;;;;4739171;30;20426;-93
2024/01/07 06:43:44;;;;;;;11.30;8.82;;;5.30;82.00;;;;;;4736487;30;20451;-94
2024/01/07 06:46:10;;;;;;;10.13;8.38;;;5.30;82.00;;;;;;4725416;30;20347;-95
2024/01/07 06:48:36;;;;;;;10.50;8.40;;;5.30;82.10;;;;;;4738659;30;20121;-93
2024/01/07 06:51:01;;;;;;;10.10;8.05;;;5.30;82.00;;;;;;4743061;30;20479;-94
2024/01/07 06:53:27;;;;;;;9.65;7.75;;;5.30;82.00;;;;;;4733907;30;20037;-95
2024/01/07 06:55:53;;;;;;;9.88;7.65;;;5.30;82.00;;;;;;4751201;30;20036;-94
2024/01/07 06:58:19;;;;;;;10.10;7.95;;;5.30;82.00;;;;;;4737940;30;20035;-94
2024/01/07 07:00:44;;;;;;;8.48;7.45;;;5.30;82.10;;;;;;4738030;30;20047;-95
2024/01/07 07:03:11;;;;;;;9.82;8.02;;;5.30;82.10;;;;;;4752880;30;20054;-93
2024/01/07 07:05:37;;;;;;;9.25;7.95;;;5.30;82.10;;;;;;4740741;30;20094;-94
2024/01/07 07:08:03;;;;;;;9.68;8.07;;;5.30;82.00;;;;;;4731365;30;20032;-94
2024/01/07 07:10:28;;;;;;;10.07;8.13;;;5.20;82.00;;;;;;4722039;30;20029;-95
2024/01/07 07:12:54;;;;;;;9.43;7.97;;;5.30;82.10;;;;;;4738711;30;20035;-95
2024/01/07 07:15:20;;;;;;;10.27;8.30;;;5.30;82.00;;;;;;4757952;30;20040;-95
2024/01/07 07:17:45;;;;;;;9.50;7.63;;;5.30;82.00;;;;;;4743280;30;20056;-94
2024/01/07 07:20:11;;;;;;;9.15;7.72;;;5.20;82.00;;;;;;4728942;30;20040;-96
2024/01/07 07:22:37;;;;;;;8.40;7.32;;;5.30;82.00;;;;;;4745087;30;20039;-95
2024/01/07 07:25:03;;;;;;;9.60;8.20;;;5.20;82.00;;;;;;4736350;30;20417;-93
2024/01/07 07:27:29;;;;;;;10.73;8.38;;;5.20;82.00;;;;;;4731950;30;20498;-95
2024/01/07 07:29:55;;;;;;;10.15;8.20;;;5.20;82.00;;;;;;4738432;30;20032;-94
2024/01/07 07:32:21;;;;;;;9.82;7.85;;;5.20;82.00;;;;;;4736442;30;20037;-95
2024/01/07 07:34:47;;;;;;;10.57;8.35;;;5.20;82.00;;;;;;4728129;30;20063;-94
2024/01/07 07:37:13;;;;;;;9.35;8.00;;;5.20;82.00;;;;;;4731785;30;20025;-94
2024/01/07 07:39:39;;;;;;;10.23;7.95;;;5.20;82.00;;;;;;4734631;30;20036;-93
2024/01/07 07:42:05;;;;;;;9.73;7.97;;;5.20;82.00;;;;;;4725238;30;20039;-94
2024/01/07 07:44:32;;;;;;;10.48;7.68;;;5.20;82.00;;;;;;4732542;30;20024;-95
2024/01/07 07:46:57;;;;;;;9.68;7.90;;;5.20;82.00;;;;;;4744386;30;20032;-93
2024/01/07 07:49:23;;;;;;;8.85;7.85;;;5.20;82.00;;;;;;4735221;30;20493;-94
2024/01/07 07:51:49;;;;;;;10.57;7.95;;;5.20;82.00;;;;;;4746486;30;20028;-95
2024/01/07 07:54:14;;;;;;;10.05;8.38;;;5.20;82.00;;;;;;4738522;30;20060;-94
2024/01/07 07:56:40;;;;;;;9.23;7.60;;;5.20;82.00;;;;;;4741350;30;20510;-93
2024/01/07 07:59:06;;;;;;;9.32;7.50;;;5.20;82.00;;;;;;4731345;30;20031;-94
2024/01/07 08:01:32;;;;;;;8.63;7.30;;;5.20;82.00;;;;;;4739131;30;20041;-95
2024/01/07 08:03:58;;;;;;;9.25;8.10;;;5.10;81.90;;;;;;4738547;30;20163;-94
2024/01/07 08:06:23;;;;;;;8.95;7.38;;;5.20;82.00;;;;;;4752762;30;20032;-94
2024/01/07 08:08:49;;;;;;;9.35;7.80;;;5.20;82.00;;;;;;4733304;30;20705;-94
2024/01/07 08:11:15;;;;;;;9.20;7.97;;;5.10;81.90;;;;;;4737364;30;20054;-92
2024/01/07 08:13:41;;;;;;;9.20;7.50;;;5.10;81.90;;;;;;4729173;30;20037;-92
2024/01/07 08:16:07;;;;;;;8.73;7.35;;;5.10;81.90;;;;;;4726419;30;20036;-93
2024/01/07 08:18:32;;;;;;;8.98;7.40;;;5.10;82.00;;;;;;4729582;30;20036;-93
2024/01/07 08:20:58;;;;;;;8.63;7.40;;;5.10;81.90;;;;;;4711068;30;20120;-93
2024/01/07 08:23:25;;;;;;;8.95;7.65;;;5.10;82.50;;;;;;4711984;30;20025;-94
2024/01/07 08:25:54;;;;;;;9.40;8.02;;;5.10;81.90;;;;;;4730743;30;21227;-93
2024/01/07 08:28:20;;;;;;;8.90;7.40;;;5.10;81.90;;;;;;4744739;30;20029;-93
2024/01/07 08:30:46;;;;;;;8.18;6.80;;;5.10;81.90;;;;;;4742420;30;20028;-95
2024/01/07 08:33:12;;;;;;;8.52;7.30;;;5.10;81.90;;;;;;4759448;30;20140;-95
2024/01/07 08:35:38;;;;;;;8.52;7.50;;;5.10;81.90;;;;;;4730061;30;20059;-95
2024/01/07 08:38:04;;;;;;;9.30;7.55;;;5.10;81.90;;;;;;4763086;30;20039;-96
2024/01/07 08:40:31;;;;;;;8.15;7.22;;;5.10;81.90;;;;;;4729418;30;20524;-95
2024/01/07 08:42:57;;;;;;;8.63;7.13;;;5.10;81.90;;;;;;4753617;30;20024;-94
2024/01/07 08:45:22;;;;;;;7.40;6.47;;;5.10;81.90;;;;;;4739264;30;20074;-95
2024/01/07 08:47:48;;;;;;;8.25;6.97;;;5.10;81.90;;;;;;4732902;30;20059;-95
2024/01/07 08:50:14;;;;;;;7.65;6.45;;;5.10;81.90;;;;;;4746986;30;20028;-95
2024/01/07 08:52:40;;;;;;;9.05;7.35;;;5.10;81.80;;;;;;4727803;30;20029;-95
2024/01/07 08:55:07;;;;;;;7.97;6.97;;;5.10;81.80;;;;;;4738503;30;20055;-94
2024/01/07 08:57:33;;;;;;;8.48;6.68;;;5.10;81.80;;;;;;4729575;30;20032;-94
2024/01/07 08:59:59;;;;;;;7.55;6.60;;;5.00;81.80;;;;;;4737162;30;20043;-93
2024/01/07 09:02:25;;;;;;;8.40;6.75;;;5.10;81.90;;;;;;4757603;30;20044;-93
2024/01/07 09:04:52;;;;;;;8.13;6.93;;;5.00;81.80;;;;;;4735312;30;20131;-94
2024/01/07 09:07:19;;;;;;;7.68;6.45;;;5.00;81.80;;;;;;4740204;30;20091;-95
2024/01/07 09:09:45;;;;;;;8.05;6.57;;;5.00;81.80;;;;;;4749342;30;20043;-94
2024/01/07 09:12:10;;;;;;;7.20;6.30;;;5.00;81.80;;;;;;4724859;30;20032;-94
2024/01/07 09:14:39;;;;;;;7.88;6.45;;;5.00;81.80;;;;;;4736790;30;20046;-93
2024/01/07 09:17:05;;;;;;;8.43;6.63;;;5.00;81.80;;;;;;4737831;30;20098;-93
2024/01/07 09:19:31;;;;;;;7.72;6.85;;;5.00;81.70;;;;;;4747192;30;20036;-91
2024/01/07 09:21:57;;;;;;;8.40;6.60;;;5.00;81.80;;;;;;4728526;30;20108;-95
2024/01/07 09:24:23;;;;;;;7.63;6.13;;;5.00;81.80;;;;;;4740861;30;20055;-94
2024/01/07 09:26:49;;;;;;;7.68;6.47;;;5.00;81.80;;;;;;4733910;30;20131;-90
2024/01/07 09:29:15;;;;;;;8.27;7.00;;;5.00;81.70;;;;;;4716616;30;20207;-94
2024/01/07 09:31:41;;;;;;;8.32;6.70;;;5.00;81.70;;;;;;4748572;30;20626;-94
2024/01/07 09:34:06;;;;;;;7.32;6.47;;;5.00;81.70;;;;;;4718385;30;20040;-87
2024/01/07 09:36:33;;;;;;;7.55;5.97;;;5.00;81.70;;;;;;4723473;30;20041;-94
2024/01/07 09:38:59;;;;;;;7.88;6.50;;;5.00;81.70;;;;;;4721419;30;20035;-93
2024/01/07 09:41:25;;;;;;;7.43;5.97;;;5.00;81.70;;;;;;4738074;30;20028;-90
2024/01/07 09:43:54;;;;;;;8.13;6.57;;;5.00;81.70;;;;;;4722243;30;20547;-90
2024/01/07 09:46:22;;;;;;;7.22;5.88;;;5.00;81.70;;;;;;4734538;30;20087;-88
2024/01/07 09:48:48;;;;;;;7.82;6.65;;;5.00;81.70;;;;;;4727157;30;20565;-87
2024/01/07 09:51:15;;;;;;;7.47;6.47;;;4.90;81.70;;;;;;4717329;30;20033;-94
2024/01/07 09:53:45;;;;;;;8.02;6.45;;;4.90;81.70;;;;;;4736109;30;20036;-92
2024/01/07 09:56:15;;;;;;;7.47;6.55;;;4.90;81.70;;;;;;4734056;30;20029;-87
2024/01/07 09:58:42;;;;;;;8.32;6.53;;;4.90;81.70;;;;;;4716665;30;20067;-89
2024/01/07 10:01:09;;;;;;;8.10;6.70;;;4.90;81.70;;;;;;4746271;30;20032;-85
2024/01/07 10:03:35;;;;;;;7.80;6.65;;;4.90;81.70;;;;;;4744514;30;20075;-86
2024/01/07 10:06:01;;;;;;;7.20;6.00;;;4.90;81.70;;;;;;4720954;30;20040;-91
2024/01/07 10:08:27;;;;;;;7.95;6.38;;;5.00;81.70;;;;;;4716429;30;20402;-88
2024/01/07 10:10:53;;;;;;;7.88;5.97;;;4.90;81.60;;;;;;4718830;30;20068;-88
2024/01/07 10:13:22;;;;;;;7.38;6.25;;;4.90;81.70;;;;;;4731931;30;20043;-90
2024/01/07 10:15:48;;;;;;;7.03;5.80;;;4.90;81.60;;;;;;4730717;30;20040;-93
2024/01/07 10:18:14;;;;;;;6.43;5.53;;;4.90;81.60;;;;;;4730850;30;20576;-86
2024/01/07 10:20:40;;;;;;;7.60;5.82;;;4.90;81.60;;;;;;4712607;30;20072;-86
2024/01/07 10:23:07;;;;;;;7.03;5.47;;;4.90;81.70;;;;;;4734571;30;20049;-85
2024/01/07 10:25:34;;;;;;;7.18;5.70;;;5.00;81.70;;;;;;4725838;30;20040;-86
2024/01/07 10:28:01;;;;;;;8.18;6.15;;;4.90;81.60;;;;;;4743444;30;20028;-87
2024/01/07 10:30:27;;;;;;;6.78;5.72;;;4.90;81.60;;;;;;4746187;30;20570;-91
2024/01/07 10:32:58;;;;;;;7.35;6.03;;;4.90;81.60;;;;;;4725430;30;20035;-91
2024/01/07 10:35:33;;;;;;;7.38;6.25;;;4.90;81.60;;;;;;4736283;30;20115;-92
2024/01/07 10:37:59;;;;;;;7.05;5.35;;;4.90;81.60;;;;;;4732207;30;20033;-92
2024/01/07 10:40:27;;;;;;;6.82;4.97;;;4.90;81.60;;;;;;4726222;30;20036;-91
2024/01/07 10:42:55;;;;;;;7.25;5.43;;;4.90;81.60;;;;;;4740007;30;20112;-91
2024/01/07 10:45:21;;;;;;;6.55;5.30;;;4.90;81.60;;;;;;4735354;30;20039;-91
2024/01/07 10:47:55;;;;;;;6.22;5.18;;;4.90;81.60;;;;;;4748626;30;20028;-95
2024/01/07 10:50:26;;;;;;;7.15;5.85;;;4.90;81.60;;;;;;4732894;30;20095;-94
2024/01/07 10:53:07;;;;;;;6.63;5.43;;;4.90;81.50;;;;;;4745318;30;20032;-94
2024/01/07 10:55:37;;;;;;;6.22;4.72;;;4.90;82.20;;;;;;4732548;30;20487;-96
2024/01/07 10:58:04;;;;;;;6.65;5.18;;;4.90;81.50;;;;;;4738164;30;20028;-93
2024/01/07 11:00:31;;;;;;;6.18;4.63;;;5.00;81.60;;;;;;4757917;30;20489;-96
2024/01/07 11:03:30;;;;;;;5.65;4.90;;;4.90;81.50;;;;;;4722293;30;20090;-96
2024/01/07 11:06:06;;;;;;;5.47;4.68;;;4.90;81.50;;;;;;4734881;30;20040;-94
2024/01/07 11:08:42;;;;;;;6.38;4.97;;;4.90;81.50;;;;;;4752404;30;20051;-91
2024/01/07 11:11:27;;;;;;;7.40;4.60;;;4.90;81.50;;;;;;4735301;30;20489;-91
2024/01/07 11:13:53;;;;;;;6.03;4.53;;;4.90;81.50;;;;;;4731356;30;20032;-90
2024/01/07 11:16:46;;;;;;;6.18;4.68;;;4.90;81.40;;;;;;4724952;30;20046;-93
2024/01/07 11:19:14;;;;;;;6.40;4.60;;;4.90;81.50;;;;;;4733114;30;20048;-95
2024/01/07 11:21:40;;;;;;;5.60;4.70;;;4.90;81.40;;;;;;4727708;30;20115;-91
2024/01/07 11:24:06;;;;;;;5.35;4.80;;;4.90;81.40;;;;;;4733592;30;20029;-93
2024/01/07 11:26:32;;;;;;;5.43;4.38;;;5.00;81.50;;;;;;4732789;30;20053;-89
2024/01/07 11:29:00;;;;;;;6.32;4.82;;;5.00;81.40;;;;;;4718905;30;20055;-92
2024/01/07 11:31:47;;;;;;;6.13;4.80;;;5.00;81.50;;;;;;4732910;30;20126;-95
2024/01/07 11:34:43;;;;;;;5.68;4.50;;;5.00;81.50;;;;;;4753149;30;20101;-95
2024/01/07 11:37:13;;;;;;;5.25;4.13;;;5.00;81.40;;;;;;4716346;30;20036;-94
2024/01/07 11:39:50;;;;;;;5.22;4.28;;;5.00;81.40;;;;;;4717403;30;20033;-95
2024/01/07 11:42:17;;;;;;;5.60;4.07;;;5.00;81.40;;;;;;4726818;30;20191;-94
2024/01/07 11:44:51;;;;;;;6.03;4.32;;;5.00;81.30;;;;;;4745960;30;20028;-95
2024/01/07 11:47:18;;;;;;;4.88;3.85;;;5.00;81.40;;;;;;4747526;30;20067;-90
2024/01/07 11:49:47;;;;;;;5.60;4.40;;;5.00;81.30;;;;;;4728074;30;20037;-94
2024/01/07 11:52:13;;;;;;;5.15;4.13;;;5.00;81.40;;;;;;4734382;30;20583;-96
2024/01/07 11:54:40;;;;;;;5.03;3.80;;;5.00;81.40;;;;;;4740411;30;20033;-93
2024/01/07 11:57:06;;;;;;;4.85;3.83;;;5.00;81.40;;;;;;4724457;30;20041;-91
2024/01/07 11:59:33;;;;;;;5.10;3.72;;;5.00;81.40;;;;;;4727555;30;20047;-88
2024/01/07 12:02:01;;;;;;;5.10;3.92;;;5.00;81.40;;;;;;4719760;30;20036;-92
2024/01/07 12:04:28;;;;;;;4.28;3.55;;;5.00;81.40;;;;;;4736509;30;20027;-88
2024/01/07 12:06:54;;;;;;;4.28;3.50;;;5.00;81.40;;;;;;4735626;30;20032;-90
2024/01/07 12:09:19;;;;;;;4.13;3.33;;;5.00;81.30;;;;;;4734531;30;20067;-93
2024/01/07 12:11:45;;;;;;;5.35;3.33;;;5.00;81.30;;;;;;4719572;30;20087;-94
2024/01/07 12:14:12;;;;;;;4.18;3.13;;;5.00;81.30;;;;;;4720727;30;20079;-92
2024/01/07 12:16:38;;;;;;;3.95;3.03;;;5.00;81.20;;;;;;4734629;30;20090;-93
2024/01/07 12:19:04;;;;;;;3.67;3.10;;;5.00;81.30;;;;;;4735466;30;20039;-91
2024/01/07 12:21:30;;;;;;;3.78;2.67;;;5.00;81.20;;;;;;4754426;30;21109;-93
2024/01/07 12:23:57;;;;;;;3.70;2.80;;;5.00;81.20;;;;;;4734380;30;20161;-93
2024/01/07 12:26:27;;;;;;;3.85;2.88;;;5.00;81.20;;;;;;4716502;30;20060;-95
2024/01/07 12:28:55;;;;;;;3.47;2.60;;;5.00;81.20;;;;;;4730539;30;20040;-89
2024/01/07 12:31:21;;;;;;;3.45;2.67;;;5.00;81.10;;;;;;4727778;30;20037;-92
2024/01/07 12:33:47;;;;;;;3.75;2.85;;;5.00;81.20;;;;;;4737551;30;20036;-93
2024/01/07 12:36:14;;;;;;;3.40;2.80;;;5.00;81.10;;;;;;4727515;30;20033;-92
2024/01/07 12:38:40;;;;;;;3.53;2.58;;;5.00;81.10;;;;;;4726763;30;20032;-91
2024/01/07 12:41:06;;;;;;;4.43;2.78;;;5.00;81.10;;;;;;4717922;30;20025;-96
2024/01/07 12:43:33;;;;;;;3.45;2.83;;;5.00;81.10;;;;;;4730299;30;20092;-85
2024/01/07 12:46:04;;;;;;;3.83;2.92;;;5.00;81.10;;;;;;4717399;30;20494;-84
2024/01/07 12:48:30;;;;;;;2.90;2.40;;;5.00;81.10;;;;;;4718140;30;20048;-84